Time;durP1;ratioP1;P1;durP2;ratioP2;P2;SDS_P1;SDS_P2;PMS_P1;PMS_P2;Temp;Humidity;BMP_temperature;BMP_pressure;BME280_temperature;BME280_humidity;BME280_pressure;Samples;Min_cycle;Max_cycle;Signal;HPM_P1;HPM_P2
2022/01/29 08:56:36;;;;;;;16.63;10.68;;;8.20;99.90;;;;;;6177293;23;20112;-80
2022/01/29 08:59:02;;;;;;;19.40;11.95;;;8.30;99.90;;;;;;6154962;23;20017;-80
2022/01/29 09:01:29;;;;;;;18.20;11.68;;;8.30;99.90;;;;;;6156210;23;20005;-80
2022/01/29 09:03:55;;;;;;;24.27;11.73;;;8.40;99.90;;;;;;6179866;23;20402;-79
2022/01/29 09:06:21;;;;;;;17.85;10.90;;;8.40;99.90;;;;;;6179504;23;20013;-80
2022/01/29 09:08:50;;;;;;;21.27;11.35;;;8.40;99.90;;;;;;6155797;23;20017;-80
2022/01/29 09:11:18;;;;;;;21.75;11.07;;;8.40;99.90;;;;;;6180232;23;20080;-80
2022/01/29 09:13:45;;;;;;;19.80;10.75;;;8.40;99.90;;;;;;6157108;23;20464;-80
2022/01/29 09:16:11;;;;;;;20.33;10.00;;;8.50;99.90;;;;;;6181681;23;20100;-80
2022/01/29 09:18:37;;;;;;;17.58;10.38;;;8.50;99.90;;;;;;6181915;23;20048;-80
2022/01/29 09:21:04;;;;;;;25.95;10.25;;;8.50;99.90;;;;;;6182671;23;20025;-80
2022/01/29 09:23:30;;;;;;;16.70;8.85;;;8.60;99.90;;;;;;6182826;23;20479;-80
2022/01/29 09:25:56;;;;;;;16.38;10.20;;;8.60;99.90;;;;;;6181807;23;20025;-80
2022/01/29 09:28:22;;;;;;;13.88;8.50;;;8.60;99.90;;;;;;6157644;23;20460;-80
2022/01/29 09:30:50;;;;;;;16.63;8.68;;;8.60;99.90;;;;;;6181750;23;20033;-79
2022/01/29 09:33:16;;;;;;;17.23;9.10;;;8.70;99.90;;;;;;6182174;23;20083;-80
2022/01/29 09:35:43;;;;;;;18.23;8.50;;;8.70;99.90;;;;;;6183513;23;20459;-80
2022/01/29 09:38:11;;;;;;;18.45;8.35;;;8.70;99.90;;;;;;6182645;23;20017;-80
2022/01/29 09:40:45;;;;;;;14.15;8.70;;;8.70;99.90;;;;;;6183347;23;20121;-80
2022/01/29 09:43:11;;;;;;;16.48;8.77;;;8.70;99.90;;;;;;6181745;23;20043;-80
2022/01/29 09:45:38;;;;;;;12.57;8.05;;;8.70;99.90;;;;;;6181715;23;20053;-80
2022/01/29 09:48:04;;;;;;;12.20;7.97;;;8.70;99.90;;;;;;6181756;23;20025;-80
2022/01/29 09:50:34;;;;;;;15.70;8.68;;;8.80;99.90;;;;;;6179031;23;20587;-80
2022/01/29 09:53:02;;;;;;;14.23;8.30;;;8.80;99.90;;;;;;6148631;23;20460;-79
2022/01/29 09:55:29;;;;;;;17.92;8.05;;;8.80;99.90;;;;;;6154222;23;20019;-80
2022/01/29 09:57:56;;;;;;;12.23;8.25;;;8.80;99.90;;;;;;6181551;23;20021;-79
2022/01/29 10:00:23;;;;;;;11.95;7.97;;;8.90;99.90;;;;;;6182581;23;20024;-80
2022/01/29 10:03:19;;;;;;;16.00;8.10;;;8.90;99.90;;;;;;6182990;23;20040;-80
2022/01/29 10:05:57;;;;;;;13.73;7.47;;;9.00;99.90;;;;;;6158210;23;20103;-80
2022/01/29 10:08:23;;;;;;;25.55;8.73;;;9.00;99.90;;;;;;6182567;23;20056;-80
2022/01/29 10:10:58;;;;;;;13.45;7.53;;;9.00;99.90;;;;;;6182695;23;20024;-80
2022/01/29 10:13:29;;;;;;;13.70;8.38;;;9.00;99.90;;;;;;6182772;23;20100;-80
2022/01/29 10:16:13;;;;;;;13.35;7.75;;;9.00;99.90;;;;;;6182822;23;20043;-80
2022/01/29 10:18:41;;;;;;;11.55;6.88;;;9.00;99.90;;;;;;6182324;23;20339;-80
2022/01/29 10:21:36;;;;;;;12.95;6.95;;;9.00;99.90;;;;;;6157529;23;20466;-80
2022/01/29 10:24:08;;;;;;;12.20;7.95;;;9.00;99.90;;;;;;6156553;23;20595;-80
2022/01/29 10:26:35;;;;;;;12.90;7.60;;;9.00;99.90;;;;;;6183289;23;20079;-80
2022/01/29 10:29:05;;;;;;;13.77;7.72;;;9.10;99.90;;;;;;6182379;23;20025;-80
2022/01/29 10:31:59;;;;;;;11.50;6.30;;;9.10;99.90;;;;;;6183253;23;20013;-80
2022/01/29 10:34:56;;;;;;;11.70;6.80;;;9.10;99.90;;;;;;6183938;23;20016;-80
2022/01/29 10:37:58;;;;;;;10.52;6.47;;;9.10;99.90;;;;;;6184080;23;20152;-80
2022/01/29 10:41:01;;;;;;;10.82;6.53;;;9.10;99.90;;;;;;6181965;23;20029;-80
2022/01/29 10:43:27;;;;;;;12.75;6.90;;;9.20;99.90;;;;;;6157401;23;20514;-80
2022/01/29 10:45:53;;;;;;;12.52;6.43;;;9.20;99.90;;;;;;6157073;23;20025;-80
2022/01/29 10:48:19;;;;;;;9.77;6.38;;;9.20;99.90;;;;;;6181258;23;20024;-80
2022/01/29 10:50:45;;;;;;;11.07;6.90;;;9.20;99.90;;;;;;6181312;23;20021;-80
2022/01/29 10:53:24;;;;;;;10.68;6.03;;;9.20;99.90;;;;;;6156891;23;20052;-80
2022/01/29 10:56:03;;;;;;;13.45;6.30;;;9.20;99.90;;;;;;6181962;23;20073;-79
2022/01/29 10:58:38;;;;;;;11.07;5.80;;;9.20;99.90;;;;;;6181305;23;20067;-79
2022/01/29 11:01:16;;;;;;;14.18;6.82;;;9.30;99.90;;;;;;6156788;23;20104;-79
2022/01/29 11:03:45;;;;;;;8.15;5.38;;;9.30;99.90;;;;;;6181243;23;20110;-79
2022/01/29 11:06:20;;;;;;;10.20;5.95;;;9.30;99.90;;;;;;6181096;23;20519;-79
2022/01/29 11:08:47;;;;;;;11.18;5.85;;;9.40;99.90;;;;;;6181418;23;20017;-79
2022/01/29 11:11:30;;;;;;;11.38;5.18;;;9.40;99.90;;;;;;6156967;23;20039;-80
2022/01/29 11:13:56;;;;;;;11.23;5.55;;;9.40;99.90;;;;;;6190531;23;20044;-81
2022/01/29 11:16:22;;;;;;;8.88;4.43;;;9.40;99.90;;;;;;6196351;23;20049;-80
2022/01/29 11:18:48;;;;;;;10.65;5.35;;;9.40;99.90;;;;;;6167705;23;20020;-81
2022/01/29 11:21:15;;;;;;;8.25;5.05;;;9.50;99.90;;;;;;6157051;23;20021;-81
2022/01/29 11:23:43;;;;;;;12.25;5.15;;;9.50;99.90;;;;;;6180720;23;20021;-81
2022/01/29 11:26:09;;;;;;;8.10;4.50;;;9.50;99.90;;;;;;6181191;23;20025;-81
2022/01/29 11:28:35;;;;;;;7.25;4.15;;;9.70;99.90;;;;;;6156586;23;20020;-82
2022/01/29 11:31:13;;;;;;;6.50;4.18;;;9.70;99.90;;;;;;6182221;23;20021;-82
2022/01/29 11:33:57;;;;;;;8.68;3.75;;;9.70;99.90;;;;;;6157304;23;20048;-81
2022/01/29 11:36:55;;;;;;;8.15;3.80;;;9.70;99.90;;;;;;6181459;23;20017;-82
2022/01/29 11:39:24;;;;;;;6.68;3.40;;;9.80;99.90;;;;;;6140230;23;20313;-82
2022/01/29 11:42:14;;;;;;;6.65;3.15;;;9.80;99.90;;;;;;6182034;23;20021;-81
2022/01/29 11:44:41;;;;;;;7.68;3.15;;;9.80;99.90;;;;;;6182006;23;20020;-81
2022/01/29 11:47:44;;;;;;;10.05;3.72;;;9.80;99.90;;;;;;6181945;23;20024;-82
2022/01/29 11:50:19;;;;;;;7.47;3.63;;;9.80;99.90;;;;;;6181391;23;20021;-81
2022/01/29 11:52:59;;;;;;;10.55;3.60;;;9.80;99.90;;;;;;6156947;23;20044;-82
2022/01/29 11:55:40;;;;;;;6.85;3.40;;;9.80;99.90;;;;;;6181857;23;20017;-81
2022/01/29 11:58:34;;;;;;;12.85;3.38;;;9.90;99.90;;;;;;6181162;23;20032;-81
2022/01/29 12:01:03;;;;;;;4.97;2.80;;;9.90;99.90;;;;;;6156479;23;20021;-81
2022/01/29 12:06:43;;;;;;;9.37;3.40;;;9.90;99.90;;;;;;6182514;23;20028;-82
2022/01/29 12:09:14;;;;;;;13.30;3.60;;;9.90;99.90;;;;;;6182859;23;20027;-81
2022/01/29 12:11:42;;;;;;;5.93;3.10;;;10.00;99.90;;;;;;6182309;23;20021;-82
2022/01/29 12:14:13;;;;;;;9.98;3.58;;;10.00;99.90;;;;;;6182024;23;20071;-81
2022/01/29 12:17:02;;;;;;;8.32;3.30;;;10.00;99.90;;;;;;6157362;23;20017;-81
2022/01/29 12:19:46;;;;;;;8.90;3.13;;;10.00;99.90;;;;;;6182654;23;20017;-83
2022/01/29 12:25:56;;;;;;;4.00;2.80;;;10.00;99.90;;;;;;6184163;23;20016;-81
2022/01/29 12:28:23;;;;;;;8.98;3.13;;;10.10;99.90;;;;;;6182761;23;20032;-82
2022/01/29 12:30:49;;;;;;;7.30;2.88;;;10.10;99.90;;;;;;6157762;23;20017;-82
2022/01/29 12:33:19;;;;;;;6.65;2.60;;;10.10;99.90;;;;;;6182675;23;20448;-82
2022/01/29 12:35:54;;;;;;;8.65;2.50;;;10.20;99.90;;;;;;6183035;23;20148;-82
2022/01/29 12:41:38;;;;;;;5.97;2.30;;;10.20;99.90;;;;;;6181373;23;20021;-80
2022/01/29 12:44:08;;;;;;;6.65;2.97;;;10.20;99.90;;;;;;6178017;23;20494;-80
2022/01/29 12:46:35;;;;;;;8.25;2.78;;;10.10;99.90;;;;;;6178573;23;20092;-80
2022/01/29 12:49:07;;;;;;;10.18;2.90;;;10.20;99.90;;;;;;6180723;23;20031;-79
2022/01/29 12:51:48;;;;;;;4.53;2.50;;;10.20;99.90;;;;;;6180689;23;20025;-79
2022/01/29 12:54:14;;;;;;;7.20;2.78;;;10.20;99.90;;;;;;6180870;23;20013;-78
2022/01/29 12:56:41;;;;;;;5.97;2.50;;;10.30;99.90;;;;;;6180546;23;20083;-78
2022/01/29 12:59:10;;;;;;;5.60;2.70;;;10.30;99.90;;;;;;6155853;23;20486;-78
2022/01/29 13:01:38;;;;;;;5.10;2.50;;;10.30;99.90;;;;;;6180386;23;20113;-78
2022/01/29 13:04:08;;;;;;;7.47;2.83;;;10.30;99.90;;;;;;6180540;23;20432;-78
2022/01/29 13:06:35;;;;;;;6.43;3.00;;;10.30;99.90;;;;;;6180585;23;20013;-78
2022/01/29 13:09:14;;;;;;;5.70;2.55;;;10.30;99.90;;;;;;6180934;23;20017;-78
2022/01/29 13:11:40;;;;;;;9.60;2.75;;;10.30;99.90;;;;;;6180996;23;20021;-78
2022/01/29 13:14:16;;;;;;;8.30;2.90;;;10.30;99.90;;;;;;6155848;23;20329;-77
2022/01/29 13:16:43;;;;;;;9.25;3.20;;;10.30;99.90;;;;;;6181081;23;20013;-79
2022/01/29 13:19:12;;;;;;;7.10;3.10;;;10.30;99.90;;;;;;6181903;23;20013;-78
2022/01/29 13:21:39;;;;;;;7.78;2.83;;;10.30;99.90;;;;;;6181314;23;20017;-79
2022/01/29 13:24:48;;;;;;;7.10;2.97;;;10.20;99.90;;;;;;6180865;23;20096;-79
2022/01/29 13:27:14;;;;;;;11.35;2.97;;;10.20;99.90;;;;;;6180249;23;20028;-79
2022/01/29 13:29:54;;;;;;;6.00;3.03;;;10.20;99.90;;;;;;6155948;23;20043;-79
2022/01/29 13:32:37;;;;;;;9.10;3.08;;;10.20;99.90;;;;;;6179643;23;20017;-80
2022/01/29 13:35:21;;;;;;;;;;;10.20;99.90;;;;;;6181528;23;20023;-80
2022/01/29 13:37:56;;;;;;;9.65;2.60;;;10.20;99.90;;;;;;6180591;23;20324;-80
2022/01/29 13:40:33;;;;;;;9.63;2.85;;;10.20;99.90;;;;;;6156462;23;20017;-79
2022/01/29 13:43:01;;;;;;;11.75;2.42;;;10.10;99.90;;;;;;6180363;23;20017;-80
2022/01/29 13:45:29;;;;;;;6.47;2.58;;;10.10;99.90;;;;;;6180807;23;20036;-80
2022/01/29 13:48:03;;;;;;;7.03;2.80;;;10.00;99.90;;;;;;6180540;23;20075;-80
2022/01/29 13:50:54;;;;;;;9.48;2.70;;;10.00;99.90;;;;;;6181053;23;20021;-80
2022/01/29 13:53:22;;;;;;;7.72;2.97;;;10.00;99.90;;;;;;6180484;23;20017;-80
2022/01/29 13:56:04;;;;;;;10.18;3.15;;;9.90;99.90;;;;;;6181076;23;20024;-80
2022/01/29 13:58:53;;;;;;;6.88;2.88;;;9.90;99.90;;;;;;6179643;23;20025;-80
2022/01/29 14:01:50;;;;;;;9.77;2.60;;;9.90;99.90;;;;;;6156344;23;20083;-80
2022/01/29 14:04:25;;;;;;;6.97;2.45;;;10.00;99.90;;;;;;6180866;23;20017;-80
2022/01/29 14:07:02;;;;;;;12.93;2.80;;;10.10;99.90;;;;;;6155909;23;20140;-81
2022/01/29 14:09:57;;;;;;;11.60;2.58;;;10.10;99.90;;;;;;6180715;23;20610;-80
2022/01/29 14:12:48;;;;;;;10.13;2.55;;;10.10;99.90;;;;;;6180294;23;20028;-79
2022/01/29 14:15:14;;;;;;;6.40;2.53;;;10.20;99.90;;;;;;6179653;23;20028;-80
2022/01/29 14:17:41;;;;;;;3.40;2.13;;;10.20;99.90;;;;;;6180341;23;20464;-80
2022/01/29 14:20:14;;;;;;;9.40;2.40;;;10.30;99.90;;;;;;6156021;23;20083;-81
2022/01/29 14:22:45;;;;;;;6.65;2.28;;;10.30;99.90;;;;;;6180792;23;20237;-81
2022/01/29 14:25:14;;;;;;;9.30;3.10;;;10.30;99.90;;;;;;6156191;23;20103;-80
2022/01/29 14:27:40;;;;;;;11.27;2.83;;;10.40;99.90;;;;;;6155569;23;20087;-81
2022/01/29 14:30:07;;;;;;;12.82;2.58;;;10.50;99.90;;;;;;6156358;23;20017;-80
2022/01/29 14:32:34;;;;;;;8.68;2.28;;;10.50;99.90;;;;;;6180372;23;20475;-81
2022/01/29 14:35:02;;;;;;;5.85;2.30;;;10.60;99.90;;;;;;6156258;23;20104;-81
2022/01/29 14:37:27;;;;;;;7.20;2.55;;;10.60;99.90;;;;;;6180733;23;20383;-80
2022/01/29 14:39:53;;;;;;;10.98;2.75;;;10.60;99.90;;;;;;6158443;23;20082;-81
2022/01/29 14:42:26;;;;;;;10.27;2.70;;;10.60;99.90;;;;;;6182757;23;20063;-81
2022/01/29 14:44:52;;;;;;;10.05;2.50;;;10.60;99.90;;;;;;6157445;23;20024;-81
2022/01/29 14:47:19;;;;;;;9.05;2.58;;;10.60;99.90;;;;;;6156853;23;20024;-81
2022/01/29 14:49:46;;;;;;;7.00;3.00;;;10.60;99.90;;;;;;6156918;23;20494;-81
2022/01/29 14:52:14;;;;;;;5.68;1.98;;;10.60;99.90;;;;;;6156224;23;20017;-81
2022/01/29 14:54:41;;;;;;;4.28;2.13;;;10.60;99.90;;;;;;6180400;23;20017;-81
2022/01/29 14:57:07;;;;;;;9.18;2.50;;;10.60;99.90;;;;;;6181385;23;20053;-81
2022/01/29 14:59:34;;;;;;;5.93;3.35;;;10.60;99.90;;;;;;6181038;23;20064;-80
2022/01/29 15:02:00;;;;;;;9.35;2.58;;;10.70;99.90;;;;;;6180664;23;20021;-80
2022/01/29 15:04:26;;;;;;;11.88;2.38;;;10.70;99.90;;;;;;6180573;23;20024;-80
2022/01/29 15:06:52;;;;;;;8.30;2.50;;;10.60;99.90;;;;;;6180950;23;20024;-80
2022/01/29 15:09:20;;;;;;;6.85;2.42;;;10.70;99.90;;;;;;6180738;23;20017;-81
2022/01/29 15:11:46;;;;;;;6.28;2.53;;;10.70;99.90;;;;;;6156081;23;20074;-82
2022/01/29 15:14:13;;;;;;;9.38;2.47;;;10.70;99.90;;;;;;6155998;23;20356;-81
2022/01/29 15:16:41;;;;;;;6.45;2.42;;;10.70;99.90;;;;;;6181930;23;20017;-81
2022/01/29 15:19:07;;;;;;;10.10;2.35;;;10.70;99.90;;;;;;6181830;23;20395;-81
2022/01/29 15:21:34;;;;;;;6.03;2.28;;;10.70;99.90;;;;;;6181489;23;20017;-81
2022/01/29 15:24:00;;;;;;;8.15;2.65;;;10.80;99.90;;;;;;6179936;23;20024;-81
2022/01/29 15:26:26;;;;;;;8.43;2.78;;;10.80;99.90;;;;;;6154533;23;20021;-81
2022/01/29 15:28:52;;;;;;;10.23;2.85;;;10.80;99.90;;;;;;6179047;23;20387;-80
2022/01/29 15:31:17;;;;;;;9.70;2.70;;;10.80;99.90;;;;;;6154625;23;20076;-81
2022/01/29 15:33:44;;;;;;;8.45;2.60;;;10.80;99.90;;;;;;6155089;23;20416;-81
2022/01/29 15:36:10;;;;;;;11.20;3.08;;;10.80;99.90;;;;;;6154173;23;20028;-81
2022/01/29 15:38:38;;;;;;;10.95;2.50;;;10.90;99.90;;;;;;6154325;23;20024;-82
2022/01/29 15:41:06;;;;;;;5.45;2.00;;;10.90;99.90;;;;;;6179777;23;20456;-82
2022/01/29 15:43:34;;;;;;;8.60;2.70;;;11.00;99.90;;;;;;6179233;23;20057;-82
2022/01/29 15:46:00;;;;;;;10.07;2.65;;;11.00;99.90;;;;;;6178219;23;20021;-82
2022/01/29 15:48:26;;;;;;;12.23;3.33;;;11.00;99.90;;;;;;6153997;23;20027;-83
2022/01/29 15:50:56;;;;;;;10.73;2.28;;;10.90;99.90;;;;;;6179687;23;20071;-83
2022/01/29 15:53:24;;;;;;;6.05;2.28;;;10.90;99.90;;;;;;6179023;23;20020;-82
2022/01/29 15:55:50;;;;;;;8.20;2.13;;;11.00;99.90;;;;;;6154501;23;20021;-82
2022/01/29 15:58:19;;;;;;;6.68;2.42;;;11.00;99.90;;;;;;6178623;23;20491;-82
2022/01/29 16:00:48;;;;;;;12.32;3.70;;;10.90;99.90;;;;;;6176466;23;20078;-81
2022/01/29 16:03:16;;;;;;;14.02;3.83;;;10.90;99.90;;;;;;6154609;23;20025;-81
2022/01/29 16:05:42;;;;;;;13.50;3.50;;;10.90;99.90;;;;;;6154072;23;20028;-82
2022/01/29 16:08:08;;;;;;;10.65;3.25;;;10.90;99.90;;;;;;6154424;23;20017;-81
2022/01/29 16:10:34;;;;;;;9.60;3.05;;;10.80;99.90;;;;;;6178258;23;20513;-81
2022/01/29 16:13:00;;;;;;;13.35;3.15;;;10.80;99.90;;;;;;6178761;23;20013;-80
2022/01/29 16:15:26;;;;;;;12.60;3.03;;;10.80;99.90;;;;;;6178429;23;20451;-82
2022/01/29 16:17:53;;;;;;;9.35;2.70;;;10.70;99.90;;;;;;6179231;23;20407;-80
2022/01/29 16:20:25;;;;;;;12.15;3.22;;;10.70;99.90;;;;;;6179528;23;20087;-81
2022/01/29 16:22:54;;;;;;;16.05;2.90;;;10.70;99.90;;;;;;6179283;23;20076;-81
2022/01/29 16:25:20;;;;;;;17.42;3.30;;;10.60;99.90;;;;;;6155752;23;20032;-81
2022/01/29 16:27:45;;;;;;;15.32;3.20;;;10.60;99.90;;;;;;6180045;23;20017;-82
2022/01/29 16:30:12;;;;;;;13.88;3.70;;;10.50;99.90;;;;;;6179669;23;20068;-81
2022/01/29 16:32:41;;;;;;;15.35;3.20;;;10.50;99.90;;;;;;6179656;23;20017;-81
2022/01/29 16:35:08;;;;;;;11.45;3.28;;;10.40;99.90;;;;;;6176636;23;20017;-82
2022/01/29 16:37:34;;;;;;;17.65;3.63;;;10.40;99.90;;;;;;6150999;23;20104;-81
2022/01/29 16:40:00;;;;;;;16.35;3.42;;;10.40;99.90;;;;;;6184872;23;20025;-83
2022/01/29 16:42:27;;;;;;;16.23;3.85;;;10.30;99.90;;;;;;6186028;23;20024;-81
2022/01/29 16:44:54;;;;;;;15.23;3.60;;;10.30;99.90;;;;;;6186321;23;20020;-82
2022/01/29 16:47:20;;;;;;;15.77;3.60;;;10.20;99.90;;;;;;6187853;23;20100;-81
2022/01/29 16:49:45;;;;;;;15.40;4.45;;;10.20;99.90;;;;;;6190013;23;20021;-89
2022/01/29 16:52:12;;;;;;;20.00;4.55;;;10.20;99.90;;;;;;6105183;23;20345;-90
2022/01/29 16:54:38;;;;;;;16.38;4.72;;;10.20;99.90;;;;;;6154636;23;20028;-88
2022/01/29 16:57:04;;;;;;;17.92;4.10;;;10.10;99.90;;;;;;6129341;23;20029;-88
2022/01/29 16:59:30;;;;;;;16.55;4.30;;;10.10;99.90;;;;;;6105705;23;20017;-88
2022/01/29 17:01:55;;;;;;;23.98;4.35;;;10.10;99.90;;;;;;6154492;23;20017;-88
2022/01/29 17:04:21;;;;;;;24.40;5.13;;;10.00;99.90;;;;;;6130099;23;20025;-88
2022/01/29 17:06:47;;;;;;;22.15;4.57;;;10.00;99.90;;;;;;6129286;23;20017;-89
2022/01/29 17:09:14;;;;;;;10.80;3.60;;;9.90;99.90;;;;;;6153675;23;20522;-86
2022/01/29 17:11:41;;;;;;;18.92;4.25;;;9.90;99.90;;;;;;6129796;23;20017;-86
2022/01/29 17:14:07;;;;;;;20.52;4.85;;;9.80;99.90;;;;;;6129742;23;20016;-88
2022/01/29 17:16:33;;;;;;;16.50;4.13;;;9.80;99.90;;;;;;6129693;23;20016;-87
2022/01/29 17:19:01;;;;;;;21.88;4.80;;;9.80;99.90;;;;;;6132823;23;20021;-95
2022/01/29 17:21:27;;;;;;;24.42;5.82;;;9.70;99.90;;;;;;6133796;23;20100;-93
2022/01/29 17:23:54;;;;;;;17.70;4.45;;;9.60;99.90;;;;;;6131470;23;20021;-92
2022/01/29 17:26:20;;;;;;;22.88;4.80;;;9.60;99.90;;;;;;6132301;23;20025;-91
2022/01/29 17:28:46;;;;;;;23.58;5.45;;;9.50;99.90;;;;;;6156090;23;20662;-88
2022/01/29 17:31:12;;;;;;;22.35;4.63;;;9.50;99.90;;;;;;6130212;23;20464;-86
2022/01/29 17:33:38;;;;;;;31.40;6.05;;;9.40;99.90;;;;;;6131478;23;20024;-87
2022/01/29 17:36:04;;;;;;;20.73;4.80;;;9.30;99.90;;;;;;6107234;23;20025;-84
2022/01/29 17:38:35;;;;;;;19.08;4.75;;;9.20;99.90;;;;;;6155835;23;20017;-84
2022/01/29 17:41:01;;;;;;;28.52;4.75;;;9.20;99.90;;;;;;6156524;23;20031;-86
2022/01/29 17:43:27;;;;;;;23.92;5.82;;;9.10;99.90;;;;;;6107669;23;20025;-86
2022/01/29 17:45:53;;;;;;;20.20;4.72;;;9.00;99.90;;;;;;6131633;23;20337;-86
2022/01/29 17:48:18;;;;;;;20.05;5.50;;;9.00;99.90;;;;;;6131126;23;20056;-86
2022/01/29 17:50:44;;;;;;;24.02;4.80;;;8.90;99.90;;;;;;6131251;23;20079;-85
2022/01/29 17:53:10;;;;;;;25.08;4.95;;;8.90;99.90;;;;;;6130481;23;20064;-85
2022/01/29 17:55:38;;;;;;;29.48;5.70;;;8.80;99.90;;;;;;6153706;23;20028;-86
2022/01/29 17:58:05;;;;;;;22.23;5.45;;;8.80;99.90;;;;;;6152045;23;20583;-86
2022/01/29 18:00:31;;;;;;;23.55;5.45;;;8.80;99.90;;;;;;6127406;23;20021;-86
2022/01/29 18:02:57;;;;;;;23.08;5.03;;;8.70;99.90;;;;;;6128511;23;20491;-86
2022/01/29 18:05:23;;;;;;;28.30;5.55;;;8.70;99.90;;;;;;6128187;23;20025;-86
2022/01/29 18:07:49;;;;;;;27.65;6.65;;;8.70;99.90;;;;;;6152689;23;20048;-86
2022/01/29 18:10:15;;;;;;;25.10;5.72;;;8.70;99.90;;;;;;6152282;23;20029;-86
2022/01/29 18:12:41;;;;;;;18.83;5.30;;;8.70;99.90;;;;;;6127383;23;20052;-86
2022/01/29 18:15:07;;;;;;;28.33;6.00;;;8.60;99.90;;;;;;6152475;23;20021;-86
2022/01/29 18:17:33;;;;;;;21.77;5.88;;;8.60;99.90;;;;;;6127648;23;20017;-86
2022/01/29 18:19:59;;;;;;;16.05;5.38;;;8.50;99.90;;;;;;6156756;23;20200;-86
2022/01/29 18:22:25;;;;;;;14.45;4.28;;;8.50;99.90;;;;;;6155664;23;20079;-85
2022/01/29 18:24:51;;;;;;;20.92;4.70;;;8.60;99.90;;;;;;6156451;23;20017;-86
2022/01/29 18:27:22;;;;;;;22.35;4.68;;;8.50;99.90;;;;;;6130742;23;20021;-85
2022/01/29 18:29:48;;;;;;;22.20;5.47;;;8.50;99.90;;;;;;6131539;23;20017;-84
2022/01/29 18:32:15;;;;;;;30.45;5.13;;;9.00;99.90;;;;;;6180769;23;20096;-85
2022/01/29 18:34:41;;;;;;;20.42;5.80;;;8.50;99.90;;;;;;6131652;23;20017;-86
2022/01/29 18:37:07;;;;;;;18.42;4.70;;;8.50;99.90;;;;;;6131786;23;20036;-85
2022/01/29 18:39:38;;;;;;;18.88;4.32;;;8.40;99.90;;;;;;6132321;23;20028;-85
2022/01/29 18:42:04;;;;;;;16.83;4.20;;;8.40;99.90;;;;;;6130980;23;20013;-86
2022/01/29 18:44:30;;;;;;;22.63;5.18;;;8.40;99.90;;;;;;6156257;23;20108;-85
2022/01/29 18:46:56;;;;;;;21.40;4.20;;;8.30;99.90;;;;;;6156201;23;20021;-85
2022/01/29 18:49:21;;;;;;;21.08;4.60;;;8.30;99.90;;;;;;6131508;23;20191;-86
2022/01/29 18:51:47;;;;;;;18.63;5.30;;;8.30;99.90;;;;;;6131667;23;20029;-85
2022/01/29 18:54:13;;;;;;;24.45;4.95;;;8.30;99.90;;;;;;6107781;23;20028;-85
2022/01/29 18:56:39;;;;;;;20.42;4.80;;;8.30;99.90;;;;;;6156965;23;20017;-86
2022/01/29 18:59:05;;;;;;;14.70;4.45;;;8.20;99.90;;;;;;6107186;23;20025;-86
2022/01/29 19:01:32;;;;;;;15.52;4.22;;;8.30;99.90;;;;;;6106580;23;20024;-85
2022/01/29 19:03:58;;;;;;;17.45;4.72;;;8.30;99.90;;;;;;6155873;23;20404;-85
2022/01/29 19:06:24;;;;;;;20.77;4.57;;;9.00;99.90;;;;;;6131964;23;20017;-84
2022/01/29 19:08:49;;;;;;;21.20;4.57;;;8.30;99.90;;;;;;6126932;23;20025;-85
2022/01/29 19:11:15;;;;;;;17.65;4.13;;;8.30;99.90;;;;;;6102827;23;20021;-85
2022/01/29 19:13:46;;;;;;;19.63;4.90;;;8.30;99.90;;;;;;6127290;23;20456;-85
2022/01/29 19:16:13;;;;;;;22.35;4.63;;;8.30;99.90;;;;;;6128013;23;20021;-85
2022/01/29 19:18:42;;;;;;;21.88;4.95;;;8.40;99.90;;;;;;6127553;23;20051;-85
2022/01/29 19:21:08;;;;;;;17.40;4.38;;;8.40;99.90;;;;;;6103700;23;20083;-84
2022/01/29 19:23:34;;;;;;;23.85;5.75;;;8.30;99.90;;;;;;6127211;23;20029;-84
2022/01/29 19:25:59;;;;;;;14.77;4.38;;;8.60;99.90;;;;;;6152336;23;20028;-84
2022/01/29 19:28:25;;;;;;;12.07;4.20;;;8.20;99.90;;;;;;6103440;23;20061;-85
2022/01/29 19:30:51;;;;;;;18.45;4.63;;;8.30;99.90;;;;;;6152348;23;20031;-85
2022/01/29 19:33:16;;;;;;;13.65;4.15;;;8.30;99.90;;;;;;6127587;23;20017;-85
2022/01/29 19:35:43;;;;;;;22.02;4.53;;;8.20;99.90;;;;;;6103382;23;20013;-85
2022/01/29 19:38:10;;;;;;;21.92;4.40;;;8.20;99.90;;;;;;6092811;23;20101;-84
2022/01/29 19:40:36;;;;;;;18.63;4.78;;;8.30;99.90;;;;;;6067220;23;20116;-85
2022/01/29 19:43:03;;;;;;;17.55;4.35;;;8.30;99.90;;;;;;6090467;23;20028;-85
2022/01/29 19:45:29;;;;;;;21.27;4.80;;;8.30;99.90;;;;;;6089981;23;20735;-86
2022/01/29 19:47:55;;;;;;;24.05;4.20;;;8.20;99.90;;;;;;6066628;23;20026;-85
2022/01/29 19:50:23;;;;;;;22.45;4.50;;;8.20;99.90;;;;;;6066755;23;20125;-85
2022/01/29 19:52:50;;;;;;;20.73;4.75;;;8.20;99.90;;;;;;6043075;23;20038;-85
2022/01/29 19:55:17;;;;;;;22.63;4.35;;;8.20;99.90;;;;;;6090806;23;20018;-86
2022/01/29 19:57:43;;;;;;;22.70;4.63;;;8.20;99.90;;;;;;6089905;23;20022;-85
2022/01/29 20:00:10;;;;;;;13.75;4.05;;;8.20;99.90;;;;;;6091156;23;20061;-85
2022/01/29 20:02:36;;;;;;;22.27;4.88;;;8.20;99.90;;;;;;6066420;23;20044;-85
2022/01/29 20:05:06;;;;;;;7.57;2.72;;;8.10;99.90;;;;;;6092041;23;20548;-86
2022/01/29 20:07:32;;;;;;;11.48;3.10;;;7.70;99.90;;;;;;6067072;23;20028;-85
2022/01/29 20:09:58;;;;;;;7.68;2.30;;;7.20;99.90;;;;;;6140444;23;20507;-86
2022/01/29 20:12:24;;;;;;;8.52;2.30;;;7.00;99.90;;;;;;6176442;23;20364;-85
2022/01/29 20:14:49;;;;;;;7.13;2.25;;;6.70;99.90;;;;;;6126663;23;20027;-86
2022/01/29 20:17:15;;;;;;;9.57;2.45;;;6.50;99.90;;;;;;6102225;23;20017;-84
2022/01/29 20:19:41;;;;;;;6.57;2.53;;;6.40;99.90;;;;;;6126212;23;20021;-85
2022/01/29 20:22:06;;;;;;;14.95;2.63;;;6.30;99.90;;;;;;6150944;23;20452;-85
2022/01/29 20:24:33;;;;;;;17.10;3.17;;;6.20;99.90;;;;;;6126374;23;20020;-85
2022/01/29 20:27:00;;;;;;;9.63;2.72;;;6.30;99.90;;;;;;6126226;23;20017;-86
2022/01/29 20:29:28;;;;;;;7.40;2.53;;;6.40;99.90;;;;;;6126750;23;20028;-85
2022/01/29 20:31:54;;;;;;;11.18;2.65;;;6.20;99.90;;;;;;6126942;23;20111;-86
2022/01/29 20:34:20;;;;;;;9.75;2.80;;;6.50;99.90;;;;;;6176628;23;20669;-86
2022/01/29 20:36:46;;;;;;;13.23;2.63;;;6.40;99.90;;;;;;6127123;23;20021;-86
2022/01/29 20:39:12;;;;;;;11.23;2.60;;;6.10;99.90;;;;;;6126687;23;20024;-86
2022/01/29 20:41:39;;;;;;;15.52;3.00;;;6.30;99.90;;;;;;6151042;23;20032;-85
2022/01/29 20:44:05;;;;;;;18.00;3.35;;;6.40;99.90;;;;;;6151510;23;20025;-85
2022/01/29 20:46:41;;;;;;;15.98;3.40;;;6.10;99.90;;;;;;6102930;23;20048;-86
2022/01/29 20:49:09;;;;;;;18.85;4.15;;;6.10;99.90;;;;;;6126978;23;20024;-86
2022/01/29 20:51:36;;;;;;;12.32;3.90;;;6.50;99.90;;;;;;6126492;23;20021;-86
2022/01/29 20:54:03;;;;;;;9.98;2.90;;;6.10;99.90;;;;;;6151455;23;20522;-86
2022/01/29 20:56:29;;;;;;;11.80;3.70;;;6.10;99.90;;;;;;6101363;23;20039;-86
2022/01/29 20:58:57;;;;;;;16.73;4.20;;;6.10;99.90;;;;;;6151204;23;20750;-87
2022/01/29 21:01:24;;;;;;;15.48;3.42;;;6.00;99.90;;;;;;6128084;23;20056;-86
2022/01/29 21:03:49;;;;;;;14.32;3.63;;;6.10;99.90;;;;;;6127952;23;20535;-86
2022/01/29 21:06:15;;;;;;;16.98;4.07;;;6.00;99.90;;;;;;6127050;23;20025;-85
2022/01/29 21:08:41;;;;;;;10.18;3.13;;;6.00;99.90;;;;;;6151273;23;20101;-86
2022/01/29 21:11:09;;;;;;;12.48;2.97;;;6.00;99.90;;;;;;6127333;23;20033;-85
2022/01/29 21:13:35;;;;;;;12.88;3.80;;;6.10;99.90;;;;;;6125144;23;20021;-85
2022/01/29 21:16:01;;;;;;;19.65;4.05;;;6.10;99.90;;;;;;6127152;23;20013;-86
2022/01/29 21:18:27;;;;;;;17.20;3.60;;;6.10;99.90;;;;;;6127745;23;20017;-86
2022/01/29 21:20:55;;;;;;;17.33;4.03;;;6.70;99.90;;;;;;6152185;23;20025;-86
2022/01/29 21:23:22;;;;;;;18.35;4.38;;;6.20;99.90;;;;;;6126663;23;20361;-85
2022/01/29 21:25:48;;;;;;;22.55;4.22;;;6.10;99.90;;;;;;6175646;23;20104;-92
2022/01/29 21:28:14;;;;;;;18.40;3.55;;;6.50;99.90;;;;;;6102520;23;20063;-85
2022/01/29 21:30:41;;;;;;;20.67;3.85;;;6.10;99.90;;;;;;6122890;23;20144;-86
2022/01/29 21:33:07;;;;;;;14.57;3.50;;;6.20;99.90;;;;;;6147723;23;20016;-85
2022/01/29 21:35:41;;;;;;;19.90;4.38;;;6.20;99.90;;;;;;6150528;23;20100;-85
2022/01/29 21:38:17;;;;;;;20.50;4.30;;;6.30;99.90;;;;;;6128745;23;20012;-85
2022/01/29 21:40:45;;;;;;;21.08;3.80;;;6.20;99.90;;;;;;6130063;23;20025;-85
2022/01/29 21:43:11;;;;;;;22.58;4.65;;;6.10;99.90;;;;;;6127588;23;20016;-86
2022/01/29 21:45:37;;;;;;;16.90;4.68;;;6.20;99.90;;;;;;6127387;23;20048;-85
2022/01/29 21:48:04;;;;;;;18.70;3.83;;;6.10;99.90;;;;;;6128670;23;20020;-85
2022/01/29 21:50:31;;;;;;;20.77;3.92;;;6.20;99.90;;;;;;6127699;23;20091;-86
2022/01/29 21:52:57;;;;;;;13.63;3.60;;;6.30;99.90;;;;;;6178155;23;20418;-86
2022/01/29 21:55:25;;;;;;;22.95;3.67;;;6.20;99.90;;;;;;6177008;23;20029;-85
2022/01/29 21:57:51;;;;;;;32.42;4.95;;;6.20;99.90;;;;;;6154011;23;20025;-86
2022/01/29 22:00:18;;;;;;;16.52;3.80;;;6.20;99.90;;;;;;6153445;23;20016;-85
2022/01/29 22:02:44;;;;;;;20.95;4.22;;;6.20;99.90;;;;;;6128274;23;20052;-85